Date,TemperatureHighF,TemperatureAvgF,TemperatureLowF,DewpointHighF,DewpointAvgF,DewpointLowF,HumidityHigh,HumidityAvg,HumidityLow,PressureMaxIn,PressureMinIn,WindSpeedMaxMPH,WindSpeedAvgMPH,GustSpeedMaxMPH,PrecipitationSumIn
2013-1-1,49,46,42,49,39,25,99,79,41,30.35,30.19,9,5,17,0.31
2013-1-2,50,46,41,49,39,31,99,79,52,30.40,30.15,8,5,35,0.38
2013-1-3,46,39,27,33,30,27,98,72,60,30.50,30.37,6,4,11,0.01
2013-1-4,52,35,22,27,21,15,98,64,27,30.57,30.45,11,5,23,0.00
2013-1-5,54,36,22,28,21,17,93,58,26,30.62,30.50,6,3,14,0.00
2013-1-6,57,44,38,37,33,27,90,67,40,30.50,30.29,8,3,19,0.01
2013-1-7,56,39,29,29,27,24,96,67,33,30.66,30.43,10,4,17,0.00
2013-1-8,55,41,27,39,32,26,98,75,46,30.68,30.60,6,3,14,0.00
2013-1-9,63,47,34,50,42,34,99,83,53,30.69,30.61,6,2,9,0.00
2013-1-10,65,53,43,48,39,31,99,64,31,30.75,30.64,10,5,79,0.00
2013-1-11,50,45,42,46,44,36,99,95,63,30.64,30.42,9,4,15,0.03
2013-1-12,70,55,44,61,51,40,99,86,69,30.42,30.35,4,2,42,0.01
2013-1-13,74,61,51,60,51,40,91,70,47,30.38,30.30,13,7,33,0.01
2013-1-14,65,62,60,65,61,57,99,96,85,30.38,30.31,9,5,38,0.31
2013-1-15,60,46,41,60,46,41,99,99,98,30.45,30.32,14,8,38,0.19
2013-1-16,51,45,40,51,45,40,99,99,97,30.32,30.21,7,4,35,0.27
2013-1-17,50,44,34,50,44,34,99,98,97,30.40,30.10,16,10,36,1.37
2013-1-18,51,37,28,34,26,17,99,68,29,30.74,30.40,12,6,21,1.42
2013-1-19,58,36,23,28,26,22,98,70,28,30.72,30.40,8,4,15,0.01
2013-1-20,65,45,30,31,28,22,92,57,27,30.40,30.25,11,5,25,0.01
2013-1-21,60,43,27,33,24,12,96,56,25,30.33,30.13,14,6,33,0.00
2013-1-22,42,34,28,12,1,-12,41,25,11,30.49,30.21,15,7,31,0.00
2013-1-23,46,31,18,19,9,-2,75,44,23,30.58,30.28,8,5,21,0.00
2013-1-24,42,32,25,25,12,-2,89,48,20,30.70,30.19,20,9,36,0.00
2013-1-25,28,24,19,26,14,3,93,67,38,30.72,30.34,14,6,62,0.00
2013-1-26,40,31,27,33,29,26,98,92,76,30.60,30.32,29,4,92,0.21
2013-1-27,44,34,22,30,24,20,96,70,45,30.80,30.60,8,4,17,0.01
2013-1-28,50,41,33,45,33,26,97,74,57,30.71,30.48,9,5,16,0.02
2013-1-29,76,56,37,56,48,36,99,78,48,30.48,30.30,10,6,39,0.01
2013-1-30,73,65,57,64,60,54,99,82,59,30.30,29.67,22,14,46,0.59
2013-1-31,57,43,32,54,22,15,91,45,28,30.24,29.71,15,10,42,0.63